TimeEDT,TemperatureF,Dew PointF,Humidity,Sea Level PressureIn,VisibilityMPH,Wind Direction,Wind SpeedMPH,Gust SpeedMPH,PrecipitationIn,Events,Conditions,WindDirDegrees,DateUTC
12:52 AM,53.1,44.1,71,29.99,10.0,Calm,Calm,-,N/A,,Clear,0,2012-10-07 04:52:00
1:52 AM,53.1,44.1,71,30.01,10.0,West,3.5,-,N/A,,Clear,260,2012-10-07 05:52:00
2:52 AM,51.1,43.0,74,30.01,10.0,Calm,Calm,-,N/A,,Clear,0,2012-10-07 06:52:00
3:52 AM,48.9,43.0,80,30.02,10.0,NW,3.5,-,N/A,,Clear,310,2012-10-07 07:52:00
4:52 AM,48.0,43.0,83,30.03,10.0,Calm,Calm,-,N/A,,Clear,0,2012-10-07 08:52:00
5:52 AM,46.9,44.1,90,30.05,10.0,Calm,Calm,-,N/A,,Clear,0,2012-10-07 09:52:00
6:52 AM,45.0,42.1,90,30.09,10.0,Calm,Calm,-,N/A,,Clear,0,2012-10-07 10:52:00
7:52 AM,48.0,42.1,80,30.09,10.0,NNE,4.6,-,N/A,,Clear,20,2012-10-07 11:52:00
8:52 AM,53.1,41.0,64,30.11,10.0,North,5.8,-,N/A,,Partly Cloudy,360,2012-10-07 12:52:00
9:52 AM,54.0,37.0,53,30.10,10.0,Calm,Calm,-,N/A,,Partly Cloudy,0,2012-10-07 13:52:00
10:52 AM,54.0,39.9,59,30.09,10.0,NNE,6.9,-,N/A,,Overcast,30,2012-10-07 14:52:00
11:52 AM,54.0,39.9,59,30.10,10.0,North,4.6,-,N/A,,Overcast,350,2012-10-07 15:52:00
12:52 PM,53.1,44.1,71,30.09,10.0,NW,3.5,-,0.01,Rain,Light Rain,320,2012-10-07 16:52:00
1:52 PM,53.1,44.1,71,30.08,10.0,Calm,Calm,-,0.02,Rain,Light Rain,0,2012-10-07 17:52:00
2:52 PM,53.1,44.1,71,30.07,10.0,Calm,Calm,-,0.02,Rain,Light Rain,0,2012-10-07 18:52:00
3:52 PM,54.0,42.1,64,30.04,10.0,Calm,Calm,-,0.00,,Overcast,0,2012-10-07 19:52:00
4:52 PM,54.0,42.1,64,30.03,10.0,Calm,Calm,-,N/A,,Overcast,0,2012-10-07 20:52:00
5:52 PM,54.0,44.1,69,30.02,10.0,North,4.6,-,0.00,,Overcast,350,2012-10-07 21:52:00
6:52 PM,53.1,44.1,71,30.02,10.0,North,3.5,-,0.00,,Overcast,350,2012-10-07 22:52:00
7:52 PM,53.1,44.1,71,30.05,10.0,NW,5.8,-,N/A,,Overcast,310,2012-10-07 23:52:00
8:33 PM,51.8,44.6,76,30.07,10.0,WNW,9.2,-,0.00,Rain,Light Rain,300,2012-10-08 00:33:00
8:52 PM,50.0,46.0,86,30.07,7.0,NW,3.5,-,0.01,Rain,Light Rain,310,2012-10-08 00:52:00
9:52 PM,50.0,46.9,89,30.10,10.0,West,10.4,-,0.03,Rain,Light Rain,280,2012-10-08 01:52:00
10:52 PM,50.0,46.0,86,30.09,10.0,WNW,5.8,-,0.04,Rain,Light Rain,290,2012-10-08 02:52:00
11:52 PM,48.9,46.0,90,30.11,10.0,WNW,8.1,-,0.02,Rain,Light Rain,300,2012-10-08 03:52:00